createdAt,value
2023-02-27T00:01:03.578Z,96298.19
2023-02-27T00:03:34.359Z,96300.03
2023-02-27T00:06:05.056Z,96299.22
2023-02-27T00:08:35.690Z,96308.88
2023-02-27T00:11:08.912Z,96293.88
2023-02-27T00:13:40.233Z,96291.19
2023-02-27T00:16:12.967Z,96282.53
2023-02-27T00:18:43.656Z,96293.44
2023-02-27T00:21:14.283Z,96290.53
2023-02-27T00:23:44.872Z,96284.94
2023-02-27T00:26:18.080Z,96287.19
2023-02-27T00:28:48.637Z,96288.84
2023-02-27T00:31:19.298Z,96285.13
2023-02-27T00:33:50.093Z,96280.81
2023-02-27T00:36:20.792Z,96272.34
2023-02-27T00:38:51.587Z,96276.88
2023-02-27T00:41:25.282Z,96273.97
2023-02-27T00:43:55.971Z,96273.97
2023-02-27T00:46:26.613Z,96265.94
2023-02-27T00:48:57.165Z,96265.94
2023-02-27T00:51:28.368Z,96268.41
2023-02-27T00:53:59.292Z,96269.47
2023-02-27T00:56:32.947Z,96277.28
2023-02-27T00:59:03.419Z,96273.75
2023-02-27T01:01:34.385Z,96264.69
2023-02-27T01:04:05.303Z,96261.22
2023-02-27T01:06:36.227Z,96262.63
2023-02-27T01:09:07.330Z,96262.63
2023-02-27T01:11:40.813Z,96274.97
2023-02-27T01:14:11.349Z,96265.06
2023-02-27T01:16:42.413Z,96249.25
2023-02-27T01:19:12.957Z,96249.25
2023-02-27T01:21:43.637Z,96248.41
2023-02-27T01:24:14.558Z,96252.13
2023-02-27T01:26:47.941Z,96262.84
2023-02-27T01:29:18.895Z,96263.88
2023-02-27T01:31:49.607Z,96264.91
2023-02-27T01:34:20.358Z,96274.81
2023-02-27T01:36:51.108Z,96290.03
2023-02-27T01:39:21.724Z,96276.88
2023-02-27T01:41:55.079Z,96279.75
2023-02-27T01:44:25.649Z,96282.44
2023-02-27T01:46:56.332Z,96265.34
2023-02-27T01:49:30.756Z,96279.53
2023-02-27T01:52:06.216Z,96285.72
2023-02-27T01:54:40.544Z,96290.25
2023-02-27T01:57:13.858Z,96282.44
2023-02-27T01:59:45.530Z,96284.91
2023-02-27T02:02:23.046Z,96287.56
2023-02-27T02:04:54.397Z,96284.91
2023-02-27T02:07:25.627Z,96293.75
2023-02-27T02:09:59.516Z,96286.78
2023-02-27T02:12:41.205Z,96292.34
2023-02-27T02:15:13.701Z,96299.53
2023-02-27T02:17:54.028Z,96306.16
2023-02-27T02:21:06.772Z,96294.03
2023-02-27T02:24:15.632Z,96290.53
2023-02-27T02:27:01.340Z,96292.25
2023-02-27T02:29:48.247Z,96300.69
2023-02-27T02:32:52.484Z,96306.69
2023-02-27T02:35:59.578Z,96312.50
2023-02-27T02:39:00.652Z,96301.38
2023-02-27T02:41:43.499Z,96305.31
2023-02-27T02:44:26.146Z,96320.78
2023-02-27T02:47:08.317Z,96314.22
2023-02-27T02:49:46.970Z,96308.03
2023-02-27T02:52:26.877Z,96298.78
2023-02-27T02:55:06.976Z,96319.59
2023-02-27T02:57:43.118Z,96320.47
2023-02-27T03:00:20.145Z,96316.34
2023-02-27T03:02:56.544Z,96301.56
2023-02-27T03:05:30.534Z,96305.47
2023-02-27T03:08:07.237Z,96308.59
2023-02-27T03:10:46.714Z,96320.56
2023-02-27T03:13:22.391Z,96327.53
2023-02-27T03:15:58.548Z,96327.53
2023-02-27T03:18:35.593Z,96335.75
2023-02-27T03:21:11.560Z,96349.34
2023-02-27T03:23:45.711Z,96346.25
2023-02-27T03:26:22.906Z,96337.81
2023-02-27T03:29:02.329Z,96317.69
2023-02-27T03:31:40.451Z,96331.28
2023-02-27T03:34:20.887Z,96342.19
2023-02-27T03:36:57.907Z,96353.09
2023-02-27T03:39:37.199Z,96346.09
2023-02-27T03:42:17.669Z,96356.81
2023-02-27T03:45:13.149Z,96361.91
2023-02-27T03:47:44.048Z,96354.72
2023-02-27T03:50:15.297Z,96349.38
2023-02-27T03:52:47.166Z,96347.75
2023-02-27T03:55:20.694Z,96345.06
2023-02-27T03:57:55.445Z,96351.47
2023-02-27T04:00:28.902Z,96350.03
2023-02-27T04:03:02.948Z,96360.47
2023-02-27T04:05:35.897Z,96367.69
2023-02-27T04:08:23.811Z,96360.94
2023-02-27T04:11:02.205Z,96368.94
2023-02-27T04:13:59.826Z,96374.50
2023-02-27T04:16:55.141Z,96358.31
2023-02-27T04:19:42.009Z,96390.75
2023-02-27T04:22:28.006Z,96400.59
2023-02-27T04:25:09.635Z,96396.72
2023-02-27T04:27:43.768Z,96417.69
2023-02-27T04:30:28.893Z,96420.56
2023-02-27T04:33:07.031Z,96427.97
2023-02-27T04:35:42.168Z,96434.97
2023-02-27T04:38:18.129Z,96440.31
2023-02-27T04:40:53.140Z,96446.50
2023-02-27T04:43:25.901Z,96493.78
2023-02-27T04:46:02.821Z,96588.38
2023-02-27T04:48:40.030Z,96643.06
2023-02-27T04:51:15.548Z,96644.66
2023-02-27T04:53:51.954Z,96662.03
2023-02-27T04:56:28.080Z,96661.06
2023-02-27T04:59:01.721Z,96670.91
2023-02-27T05:01:41.051Z,96680.47
2023-02-27T05:04:15.367Z,96685.91
2023-02-27T05:06:49.090Z,96707.31
2023-02-27T05:09:28.074Z,96718.09
2023-02-27T05:12:03.069Z,96720.34
2023-02-27T05:14:40.073Z,96739.97
2023-02-27T05:17:19.467Z,96731.09
2023-02-27T05:19:50.529Z,96730.56
2023-02-27T05:22:32.001Z,96756.00
2023-02-27T05:25:12.149Z,96760.09
2023-02-27T05:27:49.475Z,96760.50
2023-02-27T05:30:25.366Z,96761.75
2023-02-27T05:33:03.534Z,96750.16
2023-02-27T05:35:40.780Z,96753.72
2023-02-27T05:38:15.447Z,96753.03
2023-02-27T05:40:50.563Z,96746.78
2023-02-27T05:43:25.721Z,96756.75
2023-02-27T05:46:01.807Z,96746.66
2023-02-27T05:48:38.921Z,96742.72
2023-02-27T05:51:11.272Z,96727.50
2023-02-27T05:53:46.954Z,96730.00
2023-02-27T05:56:22.145Z,96723.25
2023-02-27T05:58:58.415Z,96739.88
2023-02-27T06:01:29.123Z,96771.56
2023-02-27T06:04:02.435Z,96794.84
2023-02-27T06:06:34.182Z,96790.25
2023-02-27T06:09:05.684Z,96778.00
2023-02-27T06:11:36.584Z,96768.72
2023-02-27T06:14:07.212Z,96761.75
2023-02-27T06:16:39.346Z,96777.66
2023-02-27T06:19:12.558Z,96790.75
2023-02-27T06:21:43.236Z,96771.34
2023-02-27T06:24:13.785Z,96761.06
2023-02-27T06:26:44.558Z,96768.19
2023-02-27T06:29:15.149Z,96776.97
2023-02-27T06:31:45.817Z,96777.09
2023-02-27T06:34:19.066Z,96778.91
2023-02-27T06:36:49.787Z,96802.75
2023-02-27T06:39:20.305Z,96800.88
2023-02-27T06:41:50.904Z,96825.22
2023-02-27T06:44:21.828Z,96818.88
2023-02-27T06:46:52.402Z,96839.06
2023-02-27T06:49:25.710Z,96817.63
2023-02-27T06:51:56.325Z,96839.34
2023-02-27T06:54:26.873Z,96865.06
2023-02-27T06:56:57.404Z,96856.56
2023-02-27T06:59:28.050Z,96843.88
2023-02-27T07:01:59.397Z,96874.72
2023-02-27T07:04:32.576Z,96903.09
2023-02-27T07:07:35.795Z,96922.16
2023-02-27T07:09:53.576Z,96931.81
2023-02-27T07:12:23.982Z,96924.09
2023-02-27T07:14:54.514Z,96914.97
2023-02-27T07:17:25.301Z,96904.22
2023-02-27T07:19:58.449Z,96909.06
2023-02-27T07:22:29.056Z,96954.88
2023-02-27T07:24:59.626Z,96972.13
2023-02-27T07:27:30.477Z,96955.69
2023-02-27T07:30:01.377Z,96957.69
2023-02-27T07:32:34.034Z,96959.88
2023-02-27T07:35:07.757Z,96967.53
2023-02-27T07:37:38.822Z,96962.22
2023-02-27T07:40:10.546Z,96974.34
2023-02-27T07:42:41.101Z,96964.28
2023-02-27T07:45:12.874Z,96974.22
2023-02-27T07:47:43.498Z,96986.47
2023-02-27T07:50:17.322Z,96984.81
2023-02-27T07:52:48.110Z,96991.31
2023-02-27T07:55:18.903Z,97003.09
2023-02-27T07:57:49.625Z,96989.19
2023-02-27T08:00:21.110Z,96992.47
2023-02-27T08:02:51.696Z,96998.28
2023-02-27T08:05:24.993Z,96991.97
2023-02-27T08:07:55.601Z,96993.13
2023-02-27T08:10:26.314Z,96989.13
2023-02-27T08:12:57.162Z,96979.97
2023-02-27T08:15:27.745Z,96991.75
2023-02-27T08:17:58.267Z,96986.75
2023-02-27T08:20:32.456Z,96973.78
2023-02-27T08:23:03.011Z,96994.06
2023-02-27T08:25:33.707Z,97012.75
2023-02-27T08:28:04.557Z,97015.56
2023-02-27T08:30:35.308Z,97020.22
2023-02-27T08:33:06.239Z,97027.50
2023-02-27T08:35:39.498Z,97028.63
2023-02-27T08:38:10.121Z,97022.44
2023-02-27T08:40:40.620Z,97026.91
2023-02-27T08:43:11.211Z,97033.06
2023-02-27T08:45:41.799Z,97038.50
2023-02-27T08:48:14.337Z,97034.50
2023-02-27T08:50:48.422Z,97038.28
2023-02-27T08:53:18.911Z,97037.94
2023-02-27T08:55:53.554Z,97042.91
2023-02-27T08:58:24.187Z,97040.25
2023-02-27T09:00:54.736Z,97049.59
2023-02-27T09:03:28.906Z,97054.25
2023-02-27T09:06:02.077Z,97058.28
2023-02-27T09:08:32.694Z,97055.09
2023-02-27T09:11:03.643Z,97063.09
2023-02-27T09:13:34.620Z,97051.97
2023-02-27T09:16:05.150Z,97055.16
2023-02-27T09:18:35.753Z,97073.25
2023-02-27T09:21:09.249Z,97085.22
2023-02-27T09:23:39.828Z,97085.94
2023-02-27T09:26:10.748Z,97082.28
2023-02-27T09:28:42.438Z,97080.66
2023-02-27T09:31:14.093Z,97083.00
2023-02-27T09:33:44.820Z,97084.88
2023-02-27T09:36:18.038Z,97094.19
2023-02-27T09:38:48.501Z,97083.88
2023-02-27T09:41:41.543Z,97082.38
2023-02-27T09:44:33.601Z,97088.72
2023-02-27T09:47:18.605Z,97096.00
2023-02-27T09:50:02.503Z,97097.84
2023-02-27T09:52:40.070Z,97088.72
2023-02-27T09:55:20.515Z,97082.38
2023-02-27T09:57:57.990Z,97086.03
2023-02-27T10:00:38.448Z,97091.66
2023-02-27T10:03:21.721Z,97092.63
2023-02-27T10:06:02.110Z,97085.47
2023-02-27T10:08:43.025Z,97089.94
2023-02-27T10:11:18.825Z,97087.25
2023-02-27T10:14:01.970Z,97093.72
2023-02-27T10:16:35.764Z,97091.56
2023-02-27T10:19:09.857Z,97092.88
2023-02-27T10:21:47.611Z,97089.88
2023-02-27T10:24:28.660Z,97091.38
2023-02-27T10:27:02.684Z,97092.19
2023-02-27T10:29:36.735Z,97090.84
2023-02-27T10:32:13.551Z,97094.66
2023-02-27T10:34:46.879Z,97091.16
2023-02-27T10:37:21.537Z,97098.34
2023-02-27T10:39:58.609Z,97091.16
2023-02-27T10:42:34.629Z,97100.84
2023-02-27T10:45:05.561Z,97092.19
2023-02-27T10:47:39.128Z,97099.53
2023-02-27T10:50:24.192Z,97103.81
2023-02-27T10:52:56.758Z,97107.81
2023-02-27T10:55:32.856Z,97109.13
2023-02-27T10:58:06.129Z,97106.13
2023-02-27T11:00:44.629Z,97092.28
2023-02-27T11:03:24.431Z,97091.44
2023-02-27T11:06:00.807Z,97097.44
2023-02-27T11:08:34.109Z,97096.09
2023-02-27T11:11:09.977Z,97088.09
2023-02-27T11:13:42.871Z,97093.44
2023-02-27T11:16:17.470Z,97083.78
2023-02-27T11:18:49.352Z,97079.09
2023-02-27T11:21:26.042Z,97078.78
2023-02-27T11:24:03.016Z,97077.59
2023-02-27T11:26:38.710Z,97083.38
2023-02-27T11:29:11.932Z,97083.03
2023-02-27T11:31:43.079Z,97083.34
2023-02-27T11:34:22.742Z,97077.84
2023-02-27T11:36:56.094Z,97085.81
2023-02-27T11:39:34.756Z,97083.97
2023-02-27T11:42:26.790Z,97079.31
2023-02-27T11:45:00.866Z,97080.97
2023-02-27T11:47:36.779Z,97076.31
2023-02-27T11:50:32.386Z,97091.91
2023-02-27T11:53:17.753Z,97095.53
2023-02-27T11:55:50.659Z,97092.53
2023-02-27T11:58:27.739Z,97093.00
2023-02-27T12:01:04.701Z,97096.31
2023-02-27T12:03:43.639Z,97085.47
2023-02-27T12:06:20.124Z,97088.97
2023-02-27T12:08:56.364Z,97091.66
2023-02-27T12:11:32.433Z,97093.47
2023-02-27T12:14:13.329Z,97104.78
2023-02-27T12:16:50.929Z,97104.13
2023-02-27T12:19:25.617Z,97117.59
2023-02-27T12:22:00.367Z,97116.28
2023-02-27T12:24:34.284Z,97122.16
2023-02-27T12:27:13.400Z,97119.84
2023-02-27T12:29:52.419Z,97127.84
2023-02-27T12:32:28.545Z,97126.81
2023-02-27T12:35:05.623Z,97139.97
2023-02-27T12:37:37.245Z,97131.81
2023-02-27T12:40:10.952Z,97134.28
2023-02-27T12:43:05.238Z,97131.47
2023-02-27T12:46:03.543Z,97132.78
2023-02-27T12:48:58.884Z,97141.41
2023-02-27T12:51:44.720Z,97134.06
2023-02-27T12:54:27.780Z,97141.06
2023-02-27T12:57:09.587Z,97148.50
2023-02-27T12:59:55.427Z,97132.34
2023-02-27T13:02:48.001Z,97132.19
2023-02-27T13:05:44.545Z,97142.03
2023-02-27T13:08:38.805Z,97156.16
2023-02-27T13:11:18.999Z,97152.69
2023-02-27T13:13:53.077Z,97156.31
2023-02-27T13:16:25.925Z,97152.00
2023-02-27T13:19:04.754Z,97162.03
2023-02-27T13:21:40.786Z,97169.34
2023-02-27T13:24:27.338Z,97171.69
2023-02-27T13:27:03.742Z,97152.75
2023-02-27T13:29:41.422Z,97155.44
2023-02-27T13:32:41.285Z,97148.78
2023-02-27T13:35:28.304Z,97156.78
2023-02-27T13:38:02.577Z,97154.28
2023-02-27T13:40:37.841Z,97146.47
2023-02-27T13:43:24.301Z,97150.47
2023-02-27T13:46:00.960Z,97153.69
2023-02-27T13:48:56.320Z,97160.19
2023-02-27T13:52:00.604Z,97142.53
2023-02-27T13:54:36.532Z,97153.19
2023-02-27T13:57:22.435Z,97163.66
2023-02-27T13:59:59.882Z,97159.81
2023-02-27T14:02:58.242Z,97160.50
2023-02-27T14:05:35.208Z,97154.50
2023-02-27T14:08:17.646Z,97151.03
2023-02-27T14:10:58.956Z,97145.88
2023-02-27T14:13:59.583Z,97151.19
2023-02-27T14:16:57.964Z,97151.03
2023-02-27T14:19:59.526Z,97149.84
2023-02-27T14:23:11.328Z,97144.53
2023-02-27T14:25:49.337Z,97136.88
2023-02-27T14:28:28.318Z,97135.88
2023-02-27T14:31:04.180Z,97141.38
2023-02-27T14:33:43.688Z,97145.88
2023-02-27T14:36:20.253Z,97149.53
2023-02-27T14:38:51.765Z,97153.56
2023-02-27T14:41:38.398Z,97153.19
2023-02-27T14:44:09.172Z,97148.53
2023-02-27T14:46:41.599Z,97143.53
2023-02-27T14:49:22.534Z,97154.19
2023-02-27T14:51:53.928Z,97155.03
2023-02-27T14:54:26.011Z,97155.84
2023-02-27T14:57:01.235Z,97145.03
2023-02-27T14:59:34.341Z,97140.53
2023-02-27T15:02:06.817Z,97139.53
2023-02-27T15:04:37.576Z,97157.00
2023-02-27T15:07:08.245Z,97159.47
2023-02-27T15:09:43.321Z,97146.34
2023-02-27T15:12:21.700Z,97162.16
2023-02-27T15:14:55.348Z,97158.84
2023-02-27T15:17:28.507Z,97168.13
2023-02-27T15:20:01.431Z,97189.44
2023-02-27T15:22:39.948Z,97187.75
2023-02-27T15:25:29.965Z,97189.88
2023-02-27T15:28:05.829Z,97190.97
2023-02-27T15:30:36.804Z,97186.34
2023-02-27T15:33:07.636Z,97189.28
2023-02-27T15:35:40.835Z,97200.88
2023-02-27T15:38:27.425Z,97227.19
2023-02-27T15:40:59.627Z,97242.97
2023-02-27T15:43:33.950Z,97233.50
2023-02-27T15:46:04.754Z,97230.63
2023-02-27T15:48:36.386Z,97223.41
2023-02-27T15:51:07.781Z,97207.31
2023-02-27T15:53:41.336Z,97202.34
2023-02-27T15:56:16.385Z,97220.47
2023-02-27T15:58:54.661Z,97244.47
2023-02-27T16:01:29.736Z,97236.56
2023-02-27T16:04:02.544Z,97236.69
2023-02-27T16:06:35.616Z,97236.75
2023-02-27T16:09:08.844Z,97273.13
2023-02-27T16:11:40.823Z,97257.06
2023-02-27T16:14:45.481Z,97258.19
2023-02-27T16:17:35.714Z,97270.53
2023-02-27T16:20:32.689Z,97284.66
2023-02-27T16:23:07.104Z,97270.13
2023-02-27T16:25:37.729Z,97279.75
2023-02-27T16:28:08.527Z,97289.25
2023-02-27T16:30:41.767Z,97273.78
2023-02-27T16:33:23.616Z,97308.28
2023-02-27T16:36:08.708Z,97301.31
2023-02-27T16:38:39.486Z,97290.31
2023-02-27T16:41:12.630Z,97314.50
2023-02-27T16:43:43.406Z,97311.72
2023-02-27T16:46:20.460Z,97316.22
2023-02-27T16:48:56.359Z,97320.03
2023-02-27T16:51:28.411Z,97340.16
2023-02-27T16:54:00.296Z,97325.47
2023-02-27T16:56:38.208Z,97320.06
2023-02-27T16:59:09.616Z,97320.13
2023-02-27T17:01:43.058Z,97342.13
2023-02-27T17:04:24.979Z,97343.47
2023-02-27T17:06:57.434Z,97342.63
2023-02-27T17:09:29.570Z,97343.81
2023-02-27T17:12:01.642Z,97356.31
2023-02-27T17:14:34.544Z,97361.84
2023-02-27T17:17:08.133Z,97354.59
2023-02-27T17:19:38.803Z,97358.25
2023-02-27T17:22:09.438Z,97361.63
2023-02-27T17:24:40.632Z,97361.84
2023-02-27T17:27:11.307Z,97365.56
2023-02-27T17:29:42.510Z,97346.09
2023-02-27T17:32:15.737Z,97345.25
2023-02-27T17:34:46.397Z,97356.50
2023-02-27T17:37:17.176Z,97374.88
2023-02-27T17:39:47.984Z,97381.63
2023-02-27T17:42:19.666Z,97391.38
2023-02-27T17:44:50.392Z,97384.97
2023-02-27T17:47:23.547Z,97384.66
2023-02-27T17:49:54.204Z,97380.63
2023-02-27T17:52:24.834Z,97381.50
2023-02-27T17:54:55.889Z,97375.25
2023-02-27T17:57:26.559Z,97387.34
2023-02-27T17:59:57.263Z,97366.69
2023-02-27T18:02:31.614Z,97380.03
2023-02-27T18:05:02.374Z,97393.38
2023-02-27T18:07:34.926Z,97386.69
2023-02-27T18:10:05.824Z,97390.50
2023-02-27T18:12:36.577Z,97388.06
2023-02-27T18:15:10.330Z,97400.28
2023-02-27T18:17:45.859Z,97406.09
2023-02-27T18:20:17.312Z,97411.28
2023-02-27T18:22:48.297Z,97412.28
2023-02-27T18:25:20.377Z,97418.34
2023-02-27T18:27:51.072Z,97414.03
2023-02-27T18:30:22.278Z,97407.97
2023-02-27T18:32:59.386Z,97417.31
2023-02-27T18:35:30.619Z,97423.97
2023-02-27T18:38:02.606Z,97421.44
2023-02-27T18:40:33.579Z,97422.19
2023-02-27T18:43:05.193Z,97428.88
2023-02-27T18:45:36.100Z,97437.19
2023-02-27T18:48:10.282Z,97442.88
2023-02-27T18:50:42.163Z,97439.66
2023-02-27T18:53:13.123Z,97435.34
2023-02-27T18:55:43.960Z,97449.72
2023-02-27T18:58:14.889Z,97454.94
2023-02-27T19:00:46.226Z,97462.16
2023-02-27T19:03:19.887Z,97455.47
2023-02-27T19:05:51.061Z,97459.38
2023-02-27T19:08:24.498Z,97466.19
2023-02-27T19:10:55.341Z,97463.28
2023-02-27T19:13:26.770Z,97468.84
2023-02-27T19:15:57.928Z,97460.81
2023-02-27T19:18:31.685Z,97471.38
2023-02-27T19:21:06.422Z,97473.31
2023-02-27T19:23:37.255Z,97486.81
2023-02-27T19:26:08.721Z,97481.53
2023-02-27T19:28:39.575Z,97487.78
2023-02-27T19:31:11.775Z,97489.47
2023-02-27T19:33:45.439Z,97495.31
2023-02-27T19:36:18.269Z,97500.34
2023-02-27T19:38:49.095Z,97515.66
2023-02-27T19:41:24.828Z,97514.81
2023-02-27T19:43:56.615Z,97521.19
2023-02-27T19:46:30.194Z,97520.34
2023-02-27T19:49:09.019Z,97515.66
2023-02-27T19:51:41.190Z,97516.34
2023-02-27T19:54:15.812Z,97532.59
2023-02-27T19:56:46.607Z,97540.13
2023-02-27T19:59:18.415Z,97544.88
2023-02-27T20:01:49.181Z,97552.94
2023-02-27T20:04:23.626Z,97552.94
2023-02-27T20:06:54.972Z,97547.06
2023-02-27T20:09:27.132Z,97556.56
2023-02-27T20:12:01.599Z,97553.06
2023-02-27T20:14:33.271Z,97545.94
2023-02-27T20:17:04.976Z,97558.88
2023-02-27T20:19:39.226Z,97555.28
2023-02-27T20:22:10.129Z,97553.50
2023-02-27T20:24:41.275Z,97562.25
2023-02-27T20:27:12.391Z,97563.88
2023-02-27T20:29:43.462Z,97568.22
2023-02-27T20:32:14.189Z,97560.97
2023-02-27T20:34:48.560Z,97552.94
2023-02-27T20:37:19.668Z,97540.09
2023-02-27T20:39:52.631Z,97566.16
2023-02-27T20:42:23.615Z,97566.53
2023-02-27T20:44:54.837Z,97561.06
2023-02-27T20:47:26.050Z,97565.63
2023-02-27T20:49:59.549Z,97569.72
2023-02-27T20:52:30.419Z,97570.41
2023-02-27T20:55:01.234Z,97580.75
2023-02-27T20:57:34.660Z,97584.34
2023-02-27T21:00:06.862Z,97581.53
2023-02-27T21:02:37.657Z,97580.94
2023-02-27T21:05:11.508Z,97576.66
2023-02-27T21:07:42.171Z,97576.25
2023-02-27T21:10:14.976Z,97580.75
2023-02-27T21:12:45.681Z,97576.16
2023-02-27T21:15:16.833Z,97585.53
2023-02-27T21:17:47.567Z,97576.44
2023-02-27T21:20:21.247Z,97572.25
2023-02-27T21:22:51.976Z,97578.72
2023-02-27T21:25:22.849Z,97576.97
2023-02-27T21:27:53.769Z,97577.72
2023-02-27T21:30:24.493Z,97584.47
2023-02-27T21:32:55.190Z,97576.28
2023-02-27T21:35:28.843Z,97569.28
2023-02-27T21:37:59.537Z,97583.53
2023-02-27T21:40:30.183Z,97584.50
2023-02-27T21:43:00.965Z,97584.03
2023-02-27T21:45:31.864Z,97589.66
2023-02-27T21:48:03.417Z,97587.50
2023-02-27T21:50:37.004Z,97580.19
2023-02-27T21:53:07.826Z,97572.06
2023-02-27T21:55:38.766Z,97578.19
2023-02-27T21:58:10.621Z,97580.75
2023-02-27T22:00:41.435Z,97582.56
2023-02-27T22:03:12.165Z,97581.59
2023-02-27T22:05:47.076Z,97580.94
2023-02-27T22:08:17.805Z,97581.91
2023-02-27T22:10:48.841Z,97579.72
2023-02-27T22:13:19.870Z,97580.03
2023-02-27T22:15:51.088Z,97575.81
2023-02-27T22:18:22.109Z,97584.56
2023-02-27T22:20:55.206Z,97582.91
2023-02-27T22:23:26.621Z,97579.97
2023-02-27T22:26:04.538Z,97581.91
2023-02-27T22:28:36.097Z,97577.03
2023-02-27T22:31:11.759Z,97588.78
2023-02-27T22:33:43.681Z,97591.06
2023-02-27T22:36:18.919Z,97588.09
2023-02-27T22:38:49.540Z,97583.44
2023-02-27T22:41:21.919Z,97585.97
2023-02-27T22:43:53.255Z,97578.19
2023-02-27T22:46:28.508Z,97586.03
2023-02-27T22:48:59.551Z,97581.84
2023-02-27T22:51:33.425Z,97573.94
2023-02-27T22:54:05.628Z,97579.53
2023-02-27T22:56:37.274Z,97585.09
2023-02-27T22:59:08.613Z,97584.69
2023-02-27T23:01:40.929Z,97586.06
2023-02-27T23:04:12.913Z,97585.53
2023-02-27T23:06:47.101Z,97581.66
2023-02-27T23:09:19.534Z,97582.47
2023-02-27T23:15:00.268Z,97590.25
2023-02-27T23:17:33.229Z,97590.13
2023-02-27T23:20:04.696Z,97583.00
2023-02-27T23:22:37.940Z,97584.69
2023-02-27T23:25:10.580Z,97573.53
2023-02-27T23:27:42.734Z,97582.59
2023-02-27T23:30:15.301Z,97599.84
2023-02-27T23:32:46.569Z,97599.44
2023-02-27T23:35:22.597Z,97599.69
2023-02-27T23:37:57.414Z,97583.28
2023-02-27T23:40:30.068Z,97587.19
2023-02-27T23:43:00.578Z,97593.84
2023-02-27T23:45:31.221Z,97598.31
2023-02-27T23:48:03.657Z,97601.94
2023-02-27T23:50:37.241Z,97611.09
2023-02-27T23:53:11.025Z,97614.00
2023-02-27T23:55:41.796Z,97613.66
2023-02-27T23:58:13.651Z,97610.59
